Terminal Aerodrome Forecast
Issued by NWS Wilmington, OH

Current Version | Previous Version | Graphics & Text | Print | Product List | Glossary On
Versions: 1 2 3 4 5 6 7 8 9 10 11 12 13 14 15 16 17 18 19 20 21 22 23 24 25 26 27 28
000
FTUS41 KILN 252300 RRA
TAFDAY
TAF
KDAY 252343Z 2600/2624 22017G27KT P6SM BKN035 BKN100
     FM260500 20012KT P6SM BKN080
     FM260800 19008KT P6SM BKN040
     FM261300 21012KT P6SM SCT035
     FM261700 20015G25KT P6SM VCTS BKN035CB=

USA.gov is the U.S. government's official web portal to all federal, state and local government web resources and services.